Time;durP1;ratioP1;P1;durP2;ratioP2;P2;SDS_P1;SDS_P2;PMS_P1;PMS_P2;Temp;Humidity;BMP_temperature;BMP_pressure;BME280_temperature;BME280_humidity;BME280_pressure;Samples;Min_cycle;Max_cycle;Signal;HPM_P1;HPM_P2
2021/09/16 00:00:15;;;;;;;26.75;13.52;;;16.30;99.90;;;;;;5015052;28;20037;-86
2021/09/16 00:02:41;;;;;;;25.50;13.00;;;16.30;99.90;;;;;;5014672;28;20030;-86
2021/09/16 00:05:09;;;;;;;27.10;11.75;;;16.30;99.90;;;;;;5014584;28;20038;-86
2021/09/16 00:07:34;;;;;;;22.48;11.43;;;16.30;99.90;;;;;;5014594;28;20083;-87
2021/09/16 00:10:00;;;;;;;22.05;11.30;;;16.30;99.90;;;;;;5014571;28;20045;-87
2021/09/16 00:12:25;;;;;;;14.75;11.18;;;16.30;99.90;;;;;;5014597;28;20021;-87
2021/09/16 00:14:51;;;;;;;20.70;10.15;;;16.30;99.90;;;;;;5013132;28;20041;-85
2021/09/16 00:17:17;;;;;;;22.38;10.00;;;16.30;99.90;;;;;;5014564;28;20475;-87
2021/09/16 00:19:43;;;;;;;19.40;10.25;;;16.30;99.90;;;;;;5013233;28;20022;-87
2021/09/16 00:22:09;;;;;;;14.10;8.60;;;16.20;99.90;;;;;;5014053;28;20105;-87
2021/09/16 00:24:34;;;;;;;18.38;9.15;;;16.20;99.90;;;;;;5012998;28;20026;-87
2021/09/16 00:27:00;;;;;;;19.95;9.50;;;16.10;99.90;;;;;;5014338;28;20089;-86
2021/09/16 00:29:25;;;;;;;19.00;8.88;;;16.10;99.90;;;;;;5014451;28;20084;-87
2021/09/16 00:31:51;;;;;;;15.27;7.82;;;16.10;99.90;;;;;;5014466;28;20030;-87
2021/09/16 00:34:16;;;;;;;18.42;6.50;;;16.00;99.90;;;;;;5014185;28;20475;-87
2021/09/16 00:36:42;;;;;;;9.93;6.25;;;16.00;99.90;;;;;;5014348;28;20107;-87
2021/09/16 00:39:08;;;;;;;12.07;5.85;;;16.00;99.90;;;;;;5014376;28;20474;-87
2021/09/16 00:41:33;;;;;;;12.98;6.00;;;16.10;99.90;;;;;;5014248;28;20049;-87
2021/09/16 00:43:59;;;;;;;16.27;6.32;;;16.00;99.90;;;;;;5013976;28;20467;-87
2021/09/16 00:46:26;;;;;;;16.55;6.43;;;15.90;99.90;;;;;;5014241;28;20375;-87
2021/09/16 00:48:51;;;;;;;24.42;6.22;;;16.00;99.90;;;;;;5013946;28;20025;-87
2021/09/16 00:51:17;;;;;;;18.63;6.35;;;16.00;99.90;;;;;;5013089;28;20045;-87
2021/09/16 00:53:44;;;;;;;13.68;5.70;;;16.00;99.90;;;;;;5013794;28;20026;-87
2021/09/16 00:56:12;;;;;;;12.75;4.95;;;16.00;99.90;;;;;;5014178;28;20014;-87
2021/09/16 00:58:40;;;;;;;11.05;5.28;;;15.90;99.90;;;;;;5012627;28;20121;-87
2021/09/16 01:01:07;;;;;;;15.43;4.65;;;15.90;99.90;;;;;;5013825;28;20037;-86
2021/09/16 01:03:33;;;;;;;14.90;4.72;;;15.90;99.90;;;;;;5013765;28;20508;-87
2021/09/16 01:05:58;;;;;;;12.45;4.32;;;15.90;99.90;;;;;;5012196;28;20117;-87
2021/09/16 01:08:25;;;;;;;13.43;4.32;;;15.70;99.90;;;;;;5013891;28;20442;-87
2021/09/16 01:10:51;;;;;;;17.98;5.07;;;15.80;99.90;;;;;;5013618;28;20525;-86
2021/09/16 01:13:17;;;;;;;17.02;4.25;;;15.60;99.90;;;;;;5013666;28;20026;-87
2021/09/16 01:15:44;;;;;;;10.70;4.75;;;15.60;99.90;;;;;;5013186;28;20097;-87
2021/09/16 01:18:10;;;;;;;9.18;4.53;;;15.50;99.90;;;;;;5012370;28;20491;-87
2021/09/16 01:20:36;;;;;;;15.23;5.20;;;15.50;99.90;;;;;;5013541;28;20405;-87
2021/09/16 01:23:02;;;;;;;12.35;4.50;;;15.40;99.90;;;;;;5013669;28;20030;-87
2021/09/16 01:25:29;;;;;;;9.23;4.28;;;15.40;99.90;;;;;;5013387;28;20083;-88
2021/09/16 01:27:57;;;;;;;10.95;4.28;;;15.40;99.90;;;;;;5013316;28;20479;-87
2021/09/16 01:30:23;;;;;;;18.70;4.53;;;15.50;99.90;;;;;;5013401;28;20029;-87
2021/09/16 01:32:50;;;;;;;14.05;5.22;;;15.50;99.90;;;;;;5012181;28;20402;-87
2021/09/16 01:35:16;;;;;;;15.85;5.20;;;15.60;99.90;;;;;;5012912;28;20018;-86
2021/09/16 01:37:42;;;;;;;14.10;5.00;;;15.60;99.90;;;;;;5011835;28;20053;-86
2021/09/16 01:40:08;;;;;;;8.68;4.47;;;15.70;99.90;;;;;;5013182;28;20030;-87
2021/09/16 01:42:34;;;;;;;15.13;3.85;;;15.70;99.90;;;;;;5013010;28;20032;-86
2021/09/16 01:45:00;;;;;;;7.28;3.80;;;15.70;99.90;;;;;;5012897;28;20030;-86
2021/09/16 01:47:25;;;;;;;14.27;3.83;;;15.70;99.90;;;;;;5013010;28;20026;-87
2021/09/16 01:49:51;;;;;;;12.52;3.22;;;15.70;99.90;;;;;;5013054;28;20053;-86
2021/09/16 01:52:16;;;;;;;8.43;3.38;;;15.70;99.90;;;;;;5013035;28;20463;-87
2021/09/16 01:54:45;;;;;;;13.32;3.80;;;15.70;99.90;;;;;;5012638;28;20080;-87
2021/09/16 01:57:10;;;;;;;9.05;3.08;;;15.60;99.90;;;;;;5012740;28;20064;-86
2021/09/16 01:59:36;;;;;;;16.13;3.17;;;15.60;99.90;;;;;;5012818;28;20117;-88
2021/09/16 02:02:02;;;;;;;8.10;2.45;;;15.60;99.90;;;;;;5011463;28;20493;-86
2021/09/16 02:04:28;;;;;;;20.73;2.75;;;15.70;99.90;;;;;;5012438;28;20018;-87
2021/09/16 02:06:53;;;;;;;19.25;3.25;;;15.70;99.90;;;;;;5012484;28;20034;-88
2021/09/16 02:09:19;;;;;;;13.77;3.30;;;15.70;99.90;;;;;;5012686;28;20034;-87
2021/09/16 02:11:45;;;;;;;9.32;2.45;;;15.70;99.90;;;;;;5012605;28;20376;-88
2021/09/16 02:14:10;;;;;;;15.23;2.40;;;15.80;99.90;;;;;;5010992;28;20204;-87
2021/09/16 02:16:36;;;;;;;11.98;2.00;;;15.70;99.90;;;;;;5011198;28;20033;-87
2021/09/16 02:19:02;;;;;;;21.17;4.07;;;15.70;99.90;;;;;;5012500;28;20038;-87
2021/09/16 02:21:28;;;;;;;16.67;3.08;;;15.60;99.90;;;;;;5012513;28;20029;-88
2021/09/16 02:23:53;;;;;;;12.55;2.78;;;15.60;99.90;;;;;;5012242;28;20046;-86
2021/09/16 02:26:19;;;;;;;11.95;2.90;;;15.60;99.90;;;;;;5012300;28;20026;-88
2021/09/16 02:28:44;;;;;;;15.25;2.85;;;15.60;99.90;;;;;;5011069;28;20040;-88
2021/09/16 02:31:10;;;;;;;10.07;2.10;;;15.60;99.90;;;;;;5012393;28;20024;-87
2021/09/16 02:33:35;;;;;;;9.82;2.22;;;15.60;99.90;;;;;;5011139;28;20092;-87
2021/09/16 02:36:01;;;;;;;18.42;2.65;;;15.60;99.90;;;;;;5010770;28;20121;-88
2021/09/16 02:38:27;;;;;;;10.82;2.42;;;15.60;99.90;;;;;;5012527;28;20053;-88
2021/09/16 02:40:53;;;;;;;10.10;2.53;;;15.60;99.90;;;;;;5012340;28;20022;-87
2021/09/16 02:43:19;;;;;;;16.45;2.30;;;15.60;99.90;;;;;;5012186;28;20029;-87
2021/09/16 02:45:44;;;;;;;13.18;2.35;;;15.60;99.90;;;;;;5014154;28;20029;-86
2021/09/16 02:48:10;;;;;;;17.45;3.08;;;15.60;99.90;;;;;;5016241;28;20030;-87
2021/09/16 02:50:36;;;;;;;10.25;1.70;;;15.50;99.90;;;;;;5014910;28;20117;-87
2021/09/16 02:53:02;;;;;;;11.13;3.00;;;15.60;99.90;;;;;;5016164;28;20030;-87
2021/09/16 02:55:28;;;;;;;10.77;1.90;;;15.60;99.90;;;;;;5014593;28;20045;-87
2021/09/16 02:57:53;;;;;;;18.67;2.28;;;15.60;99.90;;;;;;5015959;28;20137;-87
2021/09/16 03:00:19;;;;;;;14.77;2.20;;;15.70;99.90;;;;;;5016018;28;20474;-87
2021/09/16 03:02:44;;;;;;;12.30;2.00;;;15.70;99.90;;;;;;5015809;28;20034;-87
2021/09/16 03:05:10;;;;;;;23.90;2.38;;;15.80;99.90;;;;;;5015675;28;20034;-88
2021/09/16 03:07:36;;;;;;;18.35;2.38;;;15.80;99.90;;;;;;5015860;28;20026;-87
2021/09/16 03:10:02;;;;;;;13.80;2.35;;;15.80;99.90;;;;;;5015444;28;20053;-87
2021/09/16 03:12:28;;;;;;;18.60;3.17;;;15.80;99.90;;;;;;5015864;28;20084;-87
2021/09/16 03:14:53;;;;;;;10.52;2.05;;;15.80;99.90;;;;;;5015621;28;20029;-87
2021/09/16 03:17:19;;;;;;;14.75;1.90;;;15.80;99.90;;;;;;5014391;28;20441;-87
2021/09/16 03:19:44;;;;;;;15.27;2.20;;;15.80;99.90;;;;;;5015704;28;20449;-87
2021/09/16 03:22:10;;;;;;;10.13;1.77;;;15.80;99.90;;;;;;5014432;28;20474;-87
2021/09/16 03:24:35;;;;;;;13.00;2.78;;;15.80;99.90;;;;;;5014349;28;20025;-87
2021/09/16 03:27:01;;;;;;;14.50;2.25;;;15.80;99.90;;;;;;5015734;28;20030;-87
2021/09/16 03:29:27;;;;;;;12.35;2.22;;;15.90;99.90;;;;;;5015478;28;20029;-87
2021/09/16 03:31:52;;;;;;;12.20;2.35;;;15.90;99.90;;;;;;5015439;28;20387;-87
2021/09/16 03:34:18;;;;;;;18.88;3.10;;;15.80;99.90;;;;;;5015177;28;20164;-86
2021/09/16 03:36:43;;;;;;;8.45;1.85;;;16.00;99.90;;;;;;5014131;28;20022;-87
2021/09/16 03:39:09;;;;;;;9.48;1.83;;;15.90;99.90;;;;;;5015287;28;20548;-87
2021/09/16 03:41:34;;;;;;;11.95;1.65;;;15.90;99.90;;;;;;5015326;28;20026;-87
2021/09/16 03:44:00;;;;;;;12.55;2.90;;;15.80;99.90;;;;;;5015159;28;20474;-87
2021/09/16 03:46:25;;;;;;;8.65;2.10;;;15.90;99.90;;;;;;5015496;28;20389;-88
2021/09/16 03:48:51;;;;;;;14.57;2.38;;;15.90;99.90;;;;;;5013726;28;20376;-86
2021/09/16 03:51:17;;;;;;;11.00;2.00;;;15.90;99.90;;;;;;5015182;28;20080;-86
2021/09/16 03:53:42;;;;;;;8.68;1.50;;;15.90;99.90;;;;;;5014837;28;20101;-88
2021/09/16 03:56:08;;;;;;;5.40;1.33;;;15.90;99.90;;;;;;5014183;28;20379;-88
2021/09/16 03:58:33;;;;;;;15.25;2.08;;;15.80;99.90;;;;;;5014956;28;20494;-88
2021/09/16 04:00:59;;;;;;;15.45;1.73;;;15.80;99.90;;;;;;5015059;28;20509;-88
2021/09/16 04:03:24;;;;;;;8.88;1.73;;;15.70;99.90;;;;;;5013788;28;20062;-87
2021/09/16 04:05:50;;;;;;;10.80;1.73;;;15.70;99.90;;;;;;5014706;28;20414;-89
2021/09/16 04:08:15;;;;;;;15.65;2.10;;;15.80;99.90;;;;;;5014441;28;20029;-87
2021/09/16 04:10:42;;;;;;;10.05;1.30;;;15.70;99.90;;;;;;5014725;28;20080;-88
2021/09/16 04:13:08;;;;;;;10.07;1.33;;;15.70;99.90;;;;;;5013438;28;20034;-87
2021/09/16 04:15:33;;;;;;;12.55;2.25;;;15.60;99.90;;;;;;5014469;28;20076;-88
2021/09/16 04:17:59;;;;;;;12.95;2.63;;;15.60;99.90;;;;;;5013528;28;20117;-88
2021/09/16 04:20:24;;;;;;;10.43;1.75;;;15.60;99.90;;;;;;5014598;28;20109;-88
2021/09/16 04:22:50;;;;;;;12.13;1.38;;;15.60;99.90;;;;;;5014600;28;20569;-88
2021/09/16 04:25:16;;;;;;;6.30;1.30;;;15.60;99.90;;;;;;5013143;28;20435;-88
2021/09/16 04:27:42;;;;;;;7.28;1.25;;;15.60;99.90;;;;;;5013195;28;20453;-88
2021/09/16 04:30:08;;;;;;;14.55;1.48;;;15.60;99.90;;;;;;5014398;28;20096;-88
2021/09/16 04:32:34;;;;;;;10.68;2.05;;;15.60;99.90;;;;;;5014330;28;20033;-88
2021/09/16 04:34:59;;;;;;;10.95;1.60;;;15.70;99.90;;;;;;5012782;28;20018;-87
2021/09/16 04:37:25;;;;;;;7.70;1.80;;;15.70;99.90;;;;;;5012967;28;20029;-87
2021/09/16 04:39:51;;;;;;;12.52;1.88;;;15.60;99.90;;;;;;5012885;28;20044;-87
2021/09/16 04:42:16;;;;;;;13.23;1.77;;;15.70;99.90;;;;;;5014187;28;20391;-88
2021/09/16 04:44:42;;;;;;;9.40;1.83;;;15.70;99.90;;;;;;5014356;28;20026;-89
2021/09/16 04:47:07;;;;;;;17.67;2.03;;;15.80;99.90;;;;;;5012768;28;20216;-87
2021/09/16 04:49:33;;;;;;;10.70;2.38;;;15.70;99.90;;;;;;5013791;28;20068;-87
2021/09/16 04:51:59;;;;;;;14.38;2.28;;;15.70;99.90;;;;;;5013850;28;20033;-87
2021/09/16 04:54:24;;;;;;;16.90;1.90;;;15.70;99.90;;;;;;5013620;28;20030;-87
2021/09/16 04:56:51;;;;;;;8.52;1.85;;;15.70;99.90;;;;;;5012459;28;20022;-86
2021/09/16 04:59:16;;;;;;;8.57;1.40;;;15.60;99.90;;;;;;5012549;28;20026;-86
2021/09/16 05:01:42;;;;;;;11.38;1.92;;;15.50;99.90;;;;;;5013761;28;20390;-88
2021/09/16 05:04:07;;;;;;;15.55;2.45;;;15.50;99.90;;;;;;5013440;28;20026;-88
2021/09/16 05:06:33;;;;;;;13.15;2.22;;;15.30;99.90;;;;;;5013488;28;20045;-87
2021/09/16 05:08:58;;;;;;;7.95;2.03;;;15.30;99.90;;;;;;5013263;28;20030;-88
2021/09/16 05:11:24;;;;;;;8.85;2.40;;;15.20;99.90;;;;;;5013664;28;20037;-86
2021/09/16 05:13:50;;;;;;;13.52;2.78;;;15.10;99.90;;;;;;5013352;28;20018;-88
2021/09/16 05:16:15;;;;;;;6.30;2.00;;;15.30;99.90;;;;;;5013344;28;20081;-88
2021/09/16 05:18:41;;;;;;;17.15;2.45;;;15.20;99.90;;;;;;5013442;28;20038;-87
2021/09/16 05:21:07;;;;;;;11.27;2.15;;;15.30;99.90;;;;;;5013559;28;20041;-89
2021/09/16 05:23:32;;;;;;;10.98;2.30;;;15.20;99.90;;;;;;5013558;28;20021;-88
2021/09/16 05:25:58;;;;;;;9.30;1.85;;;15.20;99.90;;;;;;5013433;28;20105;-88
2021/09/16 05:28:24;;;;;;;18.73;2.40;;;15.20;99.90;;;;;;5013448;28;20060;-88
2021/09/16 05:30:49;;;;;;;10.80;2.25;;;15.20;99.90;;;;;;5013319;28;20026;-88
2021/09/16 05:33:15;;;;;;;12.48;2.28;;;15.10;99.90;;;;;;5013474;28;20034;-88
2021/09/16 05:35:41;;;;;;;13.40;2.45;;;15.20;99.90;;;;;;5013033;28;20018;-88
2021/09/16 05:38:07;;;;;;;8.68;2.92;;;15.30;99.90;;;;;;5013304;28;20092;-88
2021/09/16 05:40:33;;;;;;;18.65;2.78;;;15.30;99.90;;;;;;5013275;28;20022;-88
2021/09/16 05:42:59;;;;;;;10.38;2.05;;;15.30;99.90;;;;;;5012189;28;20030;-89
2021/09/16 05:45:24;;;;;;;12.40;2.30;;;15.20;99.90;;;;;;5011582;28;20030;-88
2021/09/16 05:47:50;;;;;;;16.95;3.17;;;15.30;99.90;;;;;;5013105;28;20034;-89
2021/09/16 05:50:16;;;;;;;12.65;2.60;;;15.20;99.90;;;;;;5013195;28;20095;-88
2021/09/16 05:52:41;;;;;;;10.38;2.28;;;15.30;99.90;;;;;;5013059;28;20022;-88
2021/09/16 05:55:09;;;;;;;17.17;3.25;;;15.30;99.90;;;;;;5012625;28;20105;-88
2021/09/16 05:57:35;;;;;;;15.40;3.00;;;15.30;99.90;;;;;;5013027;28;20030;-88
2021/09/16 06:00:00;;;;;;;13.25;2.88;;;15.40;99.90;;;;;;5012814;28;20033;-88
2021/09/16 06:02:26;;;;;;;19.60;2.40;;;15.40;99.90;;;;;;5027524;28;20040;-88
2021/09/16 06:04:51;;;;;;;13.13;2.60;;;15.50;99.90;;;;;;5032204;28;20114;-89
2021/09/16 06:07:17;;;;;;;12.55;2.70;;;15.50;99.90;;;;;;5014639;28;20171;-89
2021/09/16 06:09:42;;;;;;;10.98;2.80;;;15.60;99.90;;;;;;5032224;28;20485;-89
2021/09/16 06:12:08;;;;;;;11.43;3.00;;;15.70;99.90;;;;;;5014292;28;20466;-88
2021/09/16 06:14:34;;;;;;;15.70;2.08;;;15.70;99.90;;;;;;5032013;28;20025;-88
2021/09/16 06:17:00;;;;;;;14.07;2.30;;;15.80;99.90;;;;;;5032210;28;20454;-88
2021/09/16 06:19:26;;;;;;;8.85;1.95;;;15.90;99.90;;;;;;5031478;28;20068;-87
2021/09/16 06:21:52;;;;;;;5.47;1.25;;;15.80;99.90;;;;;;5032172;28;20045;-88
2021/09/16 06:24:18;;;;;;;11.48;1.90;;;15.90;99.90;;;;;;5031937;28;20474;-88
2021/09/16 06:26:43;;;;;;;7.13;2.10;;;15.90;99.90;;;;;;5014190;28;20568;-89
2021/09/16 06:29:10;;;;;;;14.07;2.10;;;15.90;99.90;;;;;;5032386;28;20022;-88
2021/09/16 06:31:36;;;;;;;15.68;3.85;;;15.90;99.90;;;;;;5032118;28;20148;-89
2021/09/16 06:34:02;;;;;;;12.40;1.80;;;16.20;99.90;;;;;;5031825;28;20378;-89
2021/09/16 06:36:27;;;;;;;13.73;2.50;;;16.10;99.90;;;;;;5014246;28;20028;-88
2021/09/16 06:38:53;;;;;;;14.18;3.15;;;16.10;99.90;;;;;;5032076;28;20100;-87
2021/09/16 06:41:19;;;;;;;16.35;2.47;;;16.20;99.90;;;;;;5031693;28;20037;-88
2021/09/16 06:43:44;;;;;;;11.70;2.83;;;16.20;99.90;;;;;;5030391;28;20108;-87
2021/09/16 06:46:11;;;;;;;11.88;2.53;;;16.30;99.90;;;;;;5031862;28;20029;-87
2021/09/16 06:48:37;;;;;;;10.60;2.40;;;16.30;99.90;;;;;;5013952;28;20017;-86
2021/09/16 06:51:02;;;;;;;14.07;2.13;;;16.20;99.90;;;;;;5031986;28;20024;-87
2021/09/16 06:53:28;;;;;;;5.60;1.88;;;16.30;99.90;;;;;;5031756;28;20548;-87
2021/09/16 06:55:53;;;;;;;9.52;2.00;;;16.30;99.90;;;;;;5030176;28;20028;-87
2021/09/16 06:58:19;;;;;;;15.45;2.97;;;16.20;99.90;;;;;;5031970;28;20148;-88
2021/09/16 07:00:44;;;;;;;9.73;1.92;;;16.30;99.90;;;;;;5031888;28;20033;-88
2021/09/16 07:03:10;;;;;;;13.38;2.35;;;16.20;99.90;;;;;;5032047;28;20033;-88
2021/09/16 07:05:35;;;;;;;9.52;1.75;;;16.10;99.90;;;;;;5031759;28;20052;-89
2021/09/16 07:08:01;;;;;;;4.82;1.23;;;16.10;99.90;;;;;;5031877;28;20044;-88
2021/09/16 07:10:26;;;;;;;6.35;2.00;;;16.20;99.90;;;;;;5030986;28;20018;-88
2021/09/16 07:12:52;;;;;;;12.35;1.67;;;16.40;99.90;;;;;;5032268;28;20097;-89
2021/09/16 07:15:18;;;;;;;13.07;1.88;;;16.30;99.90;;;;;;5031661;28;20060;-88
2021/09/16 07:17:44;;;;;;;10.90;1.55;;;16.40;99.90;;;;;;5030590;28;20033;-87
2021/09/16 07:20:10;;;;;;;8.82;1.60;;;16.50;99.90;;;;;;5032029;28;20088;-88
2021/09/16 07:22:37;;;;;;;17.05;2.35;;;16.50;99.90;;;;;;5031638;28;20043;-88
2021/09/16 07:25:04;;;;;;;7.82;1.67;;;16.40;99.90;;;;;;5031139;28;20040;-87
2021/09/16 07:27:30;;;;;;;13.70;2.08;;;16.40;99.90;;;;;;5031596;28;20112;-88
2021/09/16 07:29:55;;;;;;;12.70;1.50;;;16.60;99.90;;;;;;5032145;28;20052;-88
2021/09/16 07:32:21;;;;;;;18.08;1.92;;;16.70;99.90;;;;;;5035501;28;20060;-88
2021/09/16 07:34:46;;;;;;;5.68;1.10;;;16.90;99.90;;;;;;5017567;28;20063;-88
2021/09/16 07:37:12;;;;;;;13.13;1.13;;;16.90;99.90;;;;;;5025988;28;20025;-87
2021/09/16 07:39:38;;;;;;;8.70;1.73;;;17.00;99.90;;;;;;5030615;28;20095;-88
2021/09/16 07:42:03;;;;;;;8.60;1.40;;;17.00;99.90;;;;;;5030531;28;20032;-88
2021/09/16 07:44:29;;;;;;;6.45;1.23;;;17.00;99.90;;;;;;5030614;28;20068;-86
2021/09/16 07:46:54;;;;;;;12.85;2.13;;;17.10;99.90;;;;;;5033134;28;20040;-87
2021/09/16 07:49:20;;;;;;;13.00;2.10;;;17.10;99.90;;;;;;5029301;28;20434;-88
2021/09/16 07:51:46;;;;;;;12.00;1.52;;;17.20;99.90;;;;;;5014005;28;20428;-88
2021/09/16 07:54:11;;;;;;;6.30;1.30;;;17.30;99.90;;;;;;5030585;28;20025;-88
2021/09/16 07:56:39;;;;;;;8.70;1.50;;;17.40;99.90;;;;;;5031975;28;20029;-88
2021/09/16 07:59:06;;;;;;;11.30;1.50;;;17.50;99.90;;;;;;5030670;28;20044;-88
2021/09/16 08:01:31;;;;;;;10.02;1.65;;;17.70;99.90;;;;;;5030639;28;20036;-87
2021/09/16 08:03:57;;;;;;;18.73;4.13;;;17.80;99.90;;;;;;5031225;28;20029;-86
2021/09/16 08:06:22;;;;;;;8.32;2.00;;;18.00;99.90;;;;;;5030750;28;20092;-86
2021/09/16 08:08:48;;;;;;;17.63;2.38;;;17.90;99.90;;;;;;5030321;28;20428;-87
2021/09/16 08:11:14;;;;;;;14.60;1.55;;;18.00;99.90;;;;;;5030853;28;20021;-86
2021/09/16 08:13:40;;;;;;;7.07;1.60;;;18.10;99.90;;;;;;5030928;28;20104;-84
2021/09/16 08:16:06;;;;;;;6.85;1.27;;;17.90;99.90;;;;;;5030195;28;20148;-84
2021/09/16 08:18:31;;;;;;;6.88;1.10;;;18.00;99.90;;;;;;5030401;28;20025;-87
2021/09/16 08:20:57;;;;;;;10.50;1.45;;;18.00;99.90;;;;;;5035287;28;20036;-85
2021/09/16 08:23:23;;;;;;;7.80;1.88;;;18.00;99.90;;;;;;5030029;28;20029;-87
2021/09/16 08:25:49;;;;;;;11.10;1.70;;;18.10;99.90;;;;;;5028742;28;20025;-86
2021/09/16 08:28:15;;;;;;;12.52;1.92;;;17.90;99.90;;;;;;5030049;28;20418;-88
2021/09/16 08:30:41;;;;;;;8.60;1.92;;;17.70;99.90;;;;;;5029045;28;20109;-87
2021/09/16 08:33:07;;;;;;;19.67;1.92;;;17.60;99.90;;;;;;5029563;28;20385;-86
2021/09/16 08:35:33;;;;;;;7.00;1.52;;;17.50;99.90;;;;;;5031623;28;20018;-87
2021/09/16 08:37:59;;;;;;;14.88;2.10;;;17.30;99.90;;;;;;5029782;28;20029;-87
2021/09/16 08:40:26;;;;;;;10.50;1.75;;;17.20;99.90;;;;;;5029620;28;20036;-87
2021/09/16 08:42:51;;;;;;;20.70;2.90;;;17.10;99.90;;;;;;5038997;28;20022;-88
2021/09/16 08:45:20;;;;;;;19.42;2.55;;;17.10;99.90;;;;;;5029485;28;20062;-89
2021/09/16 08:47:49;;;;;;;14.88;3.15;;;17.20;99.90;;;;;;5029181;28;20034;-87
2021/09/16 08:50:17;;;;;;;14.10;3.40;;;17.20;99.90;;;;;;5029670;28;20029;-87
2021/09/16 08:52:45;;;;;;;11.88;2.42;;;17.30;99.90;;;;;;5029264;28;20385;-86
2021/09/16 08:55:12;;;;;;;13.27;2.50;;;17.10;99.90;;;;;;5029185;28;20025;-88
2021/09/16 08:57:43;;;;;;;17.17;3.75;;;17.20;99.90;;;;;;5025613;28;20044;-85
2021/09/16 09:00:18;;;;;;;11.60;2.28;;;17.30;99.90;;;;;;5029631;28;20028;-88
2021/09/16 09:02:50;;;;;;;8.73;2.83;;;17.30;99.90;;;;;;5029581;28;20028;-87
2021/09/16 09:05:16;;;;;;;11.05;2.00;;;17.30;99.90;;;;;;5029391;28;20045;-86
2021/09/16 09:07:44;;;;;;;7.88;1.25;;;17.10;99.90;;;;;;5027769;28;20402;-86
2021/09/16 09:10:36;;;;;;;6.72;1.40;;;17.20;99.90;;;;;;5032147;28;20024;-87
2021/09/16 09:13:03;;;;;;;20.42;2.30;;;16.90;99.90;;;;;;5021298;28;20017;-85
2021/09/16 09:15:29;;;;;;;12.93;2.40;;;16.80;99.90;;;;;;5036817;28;20025;-86
2021/09/16 09:18:14;;;;;;;23.17;2.75;;;16.60;99.90;;;;;;5029518;28;20084;-88
2021/09/16 09:20:59;;;;;;;12.77;1.95;;;16.70;99.90;;;;;;5029141;28;20030;-88
2021/09/16 09:23:28;;;;;;;12.70;1.88;;;16.70;99.90;;;;;;5029898;28;20032;-87
2021/09/16 09:25:54;;;;;;;6.50;1.20;;;16.60;99.90;;;;;;5032273;28;20036;-86
2021/09/16 09:28:46;;;;;;;5.63;1.33;;;16.50;99.90;;;;;;5028629;28;20044;-87
2021/09/16 09:31:15;;;;;;;4.20;0.80;;;16.40;99.90;;;;;;5025324;28;20056;-87
2021/09/16 09:33:42;;;;;;;7.93;1.42;;;16.30;99.90;;;;;;5029162;28;20087;-87
2021/09/16 09:36:11;;;;;;;4.45;1.65;;;16.40;99.90;;;;;;5030384;28;20029;-87
2021/09/16 09:38:52;;;;;;;11.35;2.13;;;16.40;99.90;;;;;;5028702;28;20029;-86
2021/09/16 09:41:33;;;;;;;8.77;2.03;;;16.40;99.90;;;;;;5029132;28;20037;-86
2021/09/16 09:44:13;;;;;;;13.25;2.97;;;16.50;99.90;;;;;;5021468;28;20030;-85
2021/09/16 09:47:00;;;;;;;17.65;2.88;;;16.50;99.90;;;;;;5028216;28;20041;-86
2021/09/16 09:49:26;;;;;;;21.15;3.88;;;16.50;99.90;;;;;;5028003;28;20164;-86
2021/09/16 09:51:57;;;;;;;15.43;3.08;;;16.60;99.90;;;;;;5028141;28;20673;-86
2021/09/16 09:54:36;;;;;;;22.77;3.45;;;16.60;99.90;;;;;;5027094;28;20053;-85
2021/09/16 09:57:12;;;;;;;24.25;4.50;;;16.60;99.90;;;;;;5028673;28;20022;-84
2021/09/16 10:00:00;;;;;;;23.30;3.78;;;16.60;99.90;;;;;;5028753;28;20078;-87
2021/09/16 10:02:50;;;;;;;22.13;3.78;;;16.80;99.90;;;;;;4994745;28;20521;-85
2021/09/16 10:05:27;;;;;;;22.80;4.45;;;17.10;99.90;;;;;;5012227;28;20033;-85
2021/09/16 10:07:54;;;;;;;22.52;4.85;;;17.10;99.90;;;;;;5011135;28;20117;-84
2021/09/16 10:10:21;;;;;;;26.17;5.00;;;16.90;99.90;;;;;;5012304;28;20033;-84
2021/09/16 10:12:48;;;;;;;27.33;4.80;;;17.00;99.90;;;;;;5012468;28;20025;-85
2021/09/16 10:15:18;;;;;;;26.38;5.13;;;17.10;99.90;;;;;;5012079;28;20444;-85
2021/09/16 10:17:44;;;;;;;32.38;4.95;;;17.20;99.90;;;;;;5012244;28;20018;-83
2021/09/16 10:20:13;;;;;;;21.50;4.30;;;17.40;99.90;;;;;;5012205;28;20398;-82
2021/09/16 10:22:41;;;;;;;25.35;6.10;;;17.50;99.90;;;;;;5012331;28;20022;-84
2021/09/16 10:25:08;;;;;;;31.05;4.32;;;17.50;99.90;;;;;;5012050;28;20029;-84
2021/09/16 10:27:39;;;;;;;23.67;5.53;;;17.70;99.90;;;;;;5011924;28;20065;-84
2021/09/16 10:30:23;;;;;;;26.65;5.47;;;17.90;99.90;;;;;;5012113;28;20014;-82
2021/09/16 10:33:03;;;;;;;19.35;4.90;;;17.70;99.90;;;;;;5012086;28;20026;-84
2021/09/16 10:35:30;;;;;;;27.48;5.15;;;17.80;99.90;;;;;;5011794;28;20025;-82
2021/09/16 10:38:15;;;;;;;25.02;5.30;;;17.80;99.90;;;;;;5011725;28;20041;-84
2021/09/16 10:40:41;;;;;;;22.17;5.82;;;17.70;99.90;;;;;;5012060;28;20040;-82
2021/09/16 10:43:06;;;;;;;29.17;6.28;;;17.80;99.90;;;;;;5012041;28;20030;-82
2021/09/16 10:45:37;;;;;;;20.98;4.15;;;17.80;99.90;;;;;;5010375;28;20112;-84
2021/09/16 10:48:17;;;;;;;21.00;4.63;;;17.60;99.90;;;;;;5011843;28;20026;-84
2021/09/16 10:50:48;;;;;;;31.75;5.03;;;17.80;99.90;;;;;;5011891;28;20365;-83
2021/09/16 10:53:34;;;;;;;24.65;6.18;;;18.00;99.90;;;;;;5012010;28;20109;-82
2021/09/16 10:56:01;;;;;;;15.73;5.50;;;18.10;99.90;;;;;;5011709;28;20061;-82
2021/09/16 10:58:28;;;;;;;36.13;7.80;;;18.10;99.90;;;;;;5011819;28;20452;-83
2021/09/16 11:00:54;;;;;;;26.00;6.47;;;18.10;99.90;;;;;;5010554;28;20029;-85
2021/09/16 11:03:20;;;;;;;30.25;6.57;;;18.00;99.90;;;;;;5011917;28;20068;-83
2021/09/16 11:05:53;;;;;;;21.20;5.82;;;18.00;99.90;;;;;;5013242;28;20048;-85
2021/09/16 11:08:20;;;;;;;23.08;7.28;;;17.90;99.90;;;;;;5014433;28;20028;-85
2021/09/16 11:10:48;;;;;;;29.98;7.07;;;17.90;99.90;;;;;;5015735;28;20156;-85
2021/09/16 11:13:37;;;;;;;27.08;6.82;;;17.90;99.90;;;;;;5014380;28;20021;-85
2021/09/16 11:16:03;;;;;;;22.38;6.22;;;17.90;99.90;;;;;;5015542;28;20022;-84
2021/09/16 11:18:28;;;;;;;33.50;6.75;;;17.80;99.90;;;;;;5014268;28;20025;-84
2021/09/16 11:21:06;;;;;;;31.42;8.05;;;17.80;99.90;;;;;;5015576;28;20029;-85
2021/09/16 11:23:45;;;;;;;34.95;7.95;;;17.80;99.90;;;;;;5015359;28;20022;-86
2021/09/16 11:26:30;;;;;;;24.50;8.48;;;17.90;99.90;;;;;;5014067;28;20033;-86
2021/09/16 11:29:01;;;;;;;33.20;7.90;;;17.90;99.90;;;;;;5015329;28;20030;-87
2021/09/16 11:31:27;;;;;;;32.08;8.88;;;17.90;99.90;;;;;;5015678;28;20105;-86
2021/09/16 11:34:11;;;;;;;29.48;8.85;;;17.90;99.90;;;;;;5015070;28;20076;-86
2021/09/16 11:36:36;;;;;;;26.80;8.73;;;17.90;99.90;;;;;;5015264;28;20437;-84
2021/09/16 11:39:16;;;;;;;19.48;7.53;;;18.30;99.90;;;;;;5015185;28;20034;-84
2021/09/16 11:41:42;;;;;;;18.05;7.05;;;18.40;99.90;;;;;;5015283;28;20109;-85
2021/09/16 11:44:08;;;;;;;21.38;8.30;;;18.70;99.90;;;;;;5013818;28;20504;-85
2021/09/16 11:46:34;;;;;;;27.25;9.18;;;18.80;99.90;;;;;;5014999;28;20536;-87
2021/09/16 11:49:04;;;;;;;18.33;7.00;;;18.70;99.90;;;;;;5014845;28;20034;-87
2021/09/16 11:51:30;;;;;;;17.15;6.93;;;18.80;99.90;;;;;;5013895;28;20018;-86
2021/09/16 11:53:55;;;;;;;25.50;7.90;;;18.70;99.90;;;;;;5014751;28;20033;-86
2021/09/16 11:56:21;;;;;;;16.80;7.40;;;18.70;99.90;;;;;;5014844;28;20585;-87
2021/09/16 11:58:46;;;;;;;14.63;7.25;;;18.90;99.90;;;;;;5013740;28;20041;-87
2021/09/16 12:01:15;;;;;;;17.80;7.05;;;19.10;99.90;;;;;;5013467;28;20033;-87
2021/09/16 12:03:49;;;;;;;19.27;6.28;;;19.00;99.90;;;;;;5013508;28;20090;-86
2021/09/16 12:06:16;;;;;;;16.73;6.22;;;19.20;99.90;;;;;;5014723;28;20034;-85
2021/09/16 12:08:46;;;;;;;20.30;6.38;;;19.80;99.90;;;;;;5013591;28;20037;-87
2021/09/16 12:11:17;;;;;;;16.85;6.43;;;20.00;99.90;;;;;;5014551;28;20475;-85
2021/09/16 12:13:46;;;;;;;14.48;5.05;;;20.40;99.90;;;;;;5014392;28;20061;-87
2021/09/16 12:16:31;;;;;;;14.93;5.47;;;20.30;99.90;;;;;;5014213;28;20025;-87
2021/09/16 12:19:13;;;;;;;13.88;5.90;;;20.20;99.90;;;;;;5014428;28;20026;-87
2021/09/16 12:21:45;;;;;;;12.65;5.55;;;20.00;99.90;;;;;;5014520;28;20113;-86
2021/09/16 12:24:18;;;;;;;15.43;5.75;;;19.70;99.90;;;;;;5014205;28;20029;-86
2021/09/16 12:26:50;;;;;;;23.27;6.07;;;19.20;99.90;;;;;;5014452;28;20487;-86
2021/09/16 12:29:23;;;;;;;12.52;5.20;;;19.10;99.90;;;;;;5013302;28;20037;-87
2021/09/16 12:32:04;;;;;;;10.30;3.78;;;19.10;99.90;;;;;;5013104;28;20080;-86
2021/09/16 12:34:32;;;;;;;4.10;3.22;;;19.00;99.90;;;;;;5013909;28;20058;-86
2021/09/16 12:37:07;;;;;;;8.80;3.60;;;19.60;99.90;;;;;;5012860;28;20095;-87
2021/09/16 12:39:52;;;;;;;12.30;3.90;;;20.40;99.90;;;;;;5014381;28;20038;-87